sensor_id;sensor_type;location;lat;lon;timestamp;pressure;altitude;pressure_sealevel;temperature;humidity
75401;BME280;63974;47.538;18.972;2024-02-16T00:01:21;100990.59;;;4.49;98.06
75401;BME280;63974;47.538;18.972;2024-02-16T00:04:24;100992.22;;;4.39;99.42
75401;BME280;63974;47.538;18.972;2024-02-16T00:07:26;100984.38;;;4.40;99.03
75401;BME280;63974;47.538;18.972;2024-02-16T00:10:29;100979.63;;;4.58;98.13
75401;BME280;63974;47.538;18.972;2024-02-16T00:13:32;100985.25;;;4.74;96.82
75401;BME280;63974;47.538;18.972;2024-02-16T00:16:35;100976.72;;;4.73;96.24
75401;BME280;63974;47.538;18.972;2024-02-16T00:19:37;100976.06;;;4.82;95.65
75401;BME280;63974;47.538;18.972;2024-02-16T00:22:40;100968.69;;;4.89;95.48
75401;BME280;63974;47.538;18.972;2024-02-16T00:25:43;100975.56;;;4.99;92.76
75401;BME280;63974;47.538;18.972;2024-02-16T00:28:46;100971.47;;;5.08;92.02
75401;BME280;63974;47.538;18.972;2024-02-16T00:31:49;100968.56;;;5.12;93.26
75401;BME280;63974;47.538;18.972;2024-02-16T00:34:51;100972.75;;;5.13;93.53
75401;BME280;63974;47.538;18.972;2024-02-16T00:37:56;100975.94;;;5.06;94.21
75401;BME280;63974;47.538;18.972;2024-02-16T00:40:58;100966.13;;;5.00;93.45
75401;BME280;63974;47.538;18.972;2024-02-16T00:44:01;100977.44;;;4.97;93.76
75401;BME280;63974;47.538;18.972;2024-02-16T00:47:04;100977.09;;;4.91;93.69
75401;BME280;63974;47.538;18.972;2024-02-16T00:50:12;100970.41;;;4.88;93.68
75401;BME280;63974;47.538;18.972;2024-02-16T00:53:15;100974.53;;;4.91;93.44
75401;BME280;63974;47.538;18.972;2024-02-16T00:56:18;100962.69;;;4.77;93.94
75401;BME280;63974;47.538;18.972;2024-02-16T00:59:21;100965.50;;;4.63;94.04
75401;BME280;63974;47.538;18.972;2024-02-16T01:02:24;100962.91;;;4.63;94.14
75401;BME280;63974;47.538;18.972;2024-02-16T01:05:31;100960.81;;;4.57;94.33
75401;BME280;63974;47.538;18.972;2024-02-16T01:08:34;100964.66;;;4.52;94.14
75401;BME280;63974;47.538;18.972;2024-02-16T01:11:36;100960.66;;;4.48;94.38
75401;BME280;63974;47.538;18.972;2024-02-16T01:14:39;100961.97;;;4.53;94.10
75401;BME280;63974;47.538;18.972;2024-02-16T01:17:42;100953.88;;;4.47;94.28
75401;BME280;63974;47.538;18.972;2024-02-16T01:20:44;100957.38;;;4.46;94.37
75401;BME280;63974;47.538;18.972;2024-02-16T01:23:47;100954.72;;;4.47;94.57
75401;BME280;63974;47.538;18.972;2024-02-16T01:26:50;100946.31;;;4.45;93.51
75401;BME280;63974;47.538;18.972;2024-02-16T01:29:53;100955.50;;;4.37;93.42
75401;BME280;63974;47.538;18.972;2024-02-16T01:32:55;100967.75;;;3.99;95.23
75401;BME280;63974;47.538;18.972;2024-02-16T01:35:58;100962.94;;;3.84;96.22
75401;BME280;63974;47.538;18.972;2024-02-16T01:39:01;100960.59;;;3.92;96.17
75401;BME280;63974;47.538;18.972;2024-02-16T01:42:04;100956.78;;;3.97;95.05
75401;BME280;63974;47.538;18.972;2024-02-16T01:45:07;100965.09;;;4.01;94.91
75401;BME280;63974;47.538;18.972;2024-02-16T01:48:11;100950.88;;;4.08;95.16
75401;BME280;63974;47.538;18.972;2024-02-16T01:51:15;100956.13;;;4.06;94.40
75401;BME280;63974;47.538;18.972;2024-02-16T01:54:19;100958.78;;;4.05;93.82
75401;BME280;63974;47.538;18.972;2024-02-16T01:57:22;100954.56;;;4.04;93.82
75401;BME280;63974;47.538;18.972;2024-02-16T02:00:24;100949.19;;;3.96;93.45
75401;BME280;63974;47.538;18.972;2024-02-16T02:03:28;100942.56;;;3.81;94.52
75401;BME280;63974;47.538;18.972;2024-02-16T02:06:31;100946.97;;;3.91;93.93
75401;BME280;63974;47.538;18.972;2024-02-16T02:09:34;100946.84;;;3.69;93.89
75401;BME280;63974;47.538;18.972;2024-02-16T02:12:37;100937.75;;;3.65;94.11
75401;BME280;63974;47.538;18.972;2024-02-16T02:15:39;100938.53;;;3.66;93.92
75401;BME280;63974;47.538;18.972;2024-02-16T02:18:42;100930.63;;;3.69;93.76
75401;BME280;63974;47.538;18.972;2024-02-16T02:21:48;100936.91;;;3.65;93.30
75401;BME280;63974;47.538;18.972;2024-02-16T02:24:53;100929.53;;;3.60;93.38
75401;BME280;63974;47.538;18.972;2024-02-16T02:27:57;100933.78;;;3.49;94.17
75401;BME280;63974;47.538;18.972;2024-02-16T02:31:00;100924.31;;;3.49;94.19
75401;BME280;63974;47.538;18.972;2024-02-16T02:34:03;100927.28;;;3.56;94.37
75401;BME280;63974;47.538;18.972;2024-02-16T02:37:08;100923.34;;;3.63;93.76
75401;BME280;63974;47.538;18.972;2024-02-16T02:40:11;100928.03;;;3.69;93.63
75401;BME280;63974;47.538;18.972;2024-02-16T02:43:14;100921.28;;;3.68;93.74
75401;BME280;63974;47.538;18.972;2024-02-16T02:46:17;100920.34;;;3.69;93.56
75401;BME280;63974;47.538;18.972;2024-02-16T02:49:20;100923.06;;;3.55;93.68
75401;BME280;63974;47.538;18.972;2024-02-16T02:52:23;100923.84;;;3.44;93.44
75401;BME280;63974;47.538;18.972;2024-02-16T02:55:25;100919.81;;;3.29;94.34
75401;BME280;63974;47.538;18.972;2024-02-16T02:58:29;100916.09;;;3.33;94.29
75401;BME280;63974;47.538;18.972;2024-02-16T03:01:32;100925.31;;;3.36;93.84
75401;BME280;63974;47.538;18.972;2024-02-16T03:04:35;100925.34;;;3.23;94.53
75401;BME280;63974;47.538;18.972;2024-02-16T03:07:37;100917.09;;;3.31;94.22
75401;BME280;63974;47.538;18.972;2024-02-16T03:10:40;100926.97;;;3.24;93.91
75401;BME280;63974;47.538;18.972;2024-02-16T03:13:43;100927.53;;;3.17;94.51
75401;BME280;63974;47.538;18.972;2024-02-16T03:16:46;100914.78;;;3.15;94.03
75401;BME280;63974;47.538;18.972;2024-02-16T03:19:48;100917.47;;;3.14;93.82
75401;BME280;63974;47.538;18.972;2024-02-16T03:22:51;100923.34;;;3.03;93.87
75401;BME280;63974;47.538;18.972;2024-02-16T03:25:54;100918.09;;;3.05;93.85
75401;BME280;63974;47.538;18.972;2024-02-16T03:28:57;100924.56;;;3.10;93.49
75401;BME280;63974;47.538;18.972;2024-02-16T03:32:00;100929.53;;;2.76;94.18
75401;BME280;63974;47.538;18.972;2024-02-16T03:35:03;100932.63;;;2.68;93.93
75401;BME280;63974;47.538;18.972;2024-02-16T03:38:06;100937.34;;;2.74;93.67
75401;BME280;63974;47.538;18.972;2024-02-16T03:41:28;100934.25;;;2.82;93.38
75401;BME280;63974;47.538;18.972;2024-02-16T03:44:31;100947.50;;;2.76;93.49
75401;BME280;63974;47.538;18.972;2024-02-16T03:47:33;100943.78;;;2.55;94.45
75401;BME280;63974;47.538;18.972;2024-02-16T03:50:36;100946.88;;;2.60;94.25
75401;BME280;63974;47.538;18.972;2024-02-16T03:53:39;100955.19;;;2.63;94.18
75401;BME280;63974;47.538;18.972;2024-02-16T03:56:42;100959.91;;;2.69;94.17
75401;BME280;63974;47.538;18.972;2024-02-16T03:59:45;100958.88;;;2.84;94.09
75401;BME280;63974;47.538;18.972;2024-02-16T04:02:47;100956.41;;;2.83;93.55
75401;BME280;63974;47.538;18.972;2024-02-16T04:05:50;100955.19;;;2.76;93.21
75401;BME280;63974;47.538;18.972;2024-02-16T04:08:55;100958.75;;;2.61;93.68
75401;BME280;63974;47.538;18.972;2024-02-16T04:11:58;100945.22;;;2.59;93.99
75401;BME280;63974;47.538;18.972;2024-02-16T04:15:01;100967.69;;;2.68;93.95
75401;BME280;63974;47.538;18.972;2024-02-16T04:18:04;100970.16;;;2.69;93.87
75401;BME280;63974;47.538;18.972;2024-02-16T04:21:07;100967.28;;;2.61;94.87
75401;BME280;63974;47.538;18.972;2024-02-16T04:24:10;100968.13;;;2.62;94.24
75401;BME280;63974;47.538;18.972;2024-02-16T04:27:13;100972.50;;;2.72;94.19
75401;BME280;63974;47.538;18.972;2024-02-16T04:30:15;100964.72;;;2.61;94.30
75401;BME280;63974;47.538;18.972;2024-02-16T04:33:18;100969.94;;;2.72;93.78
75401;BME280;63974;47.538;18.972;2024-02-16T04:36:21;100964.81;;;2.72;93.37
75401;BME280;63974;47.538;18.972;2024-02-16T04:39:24;100972.19;;;2.52;93.69
75401;BME280;63974;47.538;18.972;2024-02-16T04:42:27;100969.22;;;2.45;93.96
75401;BME280;63974;47.538;18.972;2024-02-16T04:45:29;100967.69;;;2.43;93.66
75401;BME280;63974;47.538;18.972;2024-02-16T04:48:32;100967.97;;;2.38;94.04
75401;BME280;63974;47.538;18.972;2024-02-16T04:51:36;100969.53;;;2.41;93.78
75401;BME280;63974;47.538;18.972;2024-02-16T04:54:42;100975.44;;;2.41;94.03
75401;BME280;63974;47.538;18.972;2024-02-16T04:57:44;100969.41;;;2.42;93.84
75401;BME280;63974;47.538;18.972;2024-02-16T05:00:47;100969.41;;;2.42;93.51
75401;BME280;63974;47.538;18.972;2024-02-16T05:03:50;100955.97;;;2.26;93.98
75401;BME280;63974;47.538;18.972;2024-02-16T05:06:53;100973.09;;;2.38;93.69
75401;BME280;63974;47.538;18.972;2024-02-16T05:10:00;100972.69;;;2.32;93.85
75401;BME280;63974;47.538;18.972;2024-02-16T05:13:04;100979.75;;;2.28;93.90
75401;BME280;63974;47.538;18.972;2024-02-16T05:16:10;100976.53;;;2.25;94.16
75401;BME280;63974;47.538;18.972;2024-02-16T05:19:13;100979.53;;;2.19;94.06
75401;BME280;63974;47.538;18.972;2024-02-16T05:22:16;100989.34;;;2.25;93.90
75401;BME280;63974;47.538;18.972;2024-02-16T05:25:24;100980.16;;;2.35;93.68
75401;BME280;63974;47.538;18.972;2024-02-16T05:28:27;100982.53;;;2.38;93.64
75401;BME280;63974;47.538;18.972;2024-02-16T05:31:29;100980.38;;;2.32;94.30
75401;BME280;63974;47.538;18.972;2024-02-16T05:34:33;100977.19;;;2.28;93.92
75401;BME280;63974;47.538;18.972;2024-02-16T05:37:44;100979.22;;;2.36;93.87
75401;BME280;63974;47.538;18.972;2024-02-16T05:40:47;100980.03;;;2.24;93.81
75401;BME280;63974;47.538;18.972;2024-02-16T05:43:56;100989.44;;;2.11;94.41
75401;BME280;63974;47.538;18.972;2024-02-16T05:46:58;100986.09;;;2.23;93.66
75401;BME280;63974;47.538;18.972;2024-02-16T05:50:01;100985.38;;;2.21;93.84
75401;BME280;63974;47.538;18.972;2024-02-16T05:53:04;100993.03;;;2.21;93.70
75401;BME280;63974;47.538;18.972;2024-02-16T05:56:07;100997.03;;;2.25;93.60
75401;BME280;63974;47.538;18.972;2024-02-16T05:59:10;101002.63;;;2.31;93.36
75401;BME280;63974;47.538;18.972;2024-02-16T06:02:14;101003.22;;;2.22;93.55
75401;BME280;63974;47.538;18.972;2024-02-16T06:05:17;101002.91;;;2.27;93.41
75401;BME280;63974;47.538;18.972;2024-02-16T06:08:19;101005.78;;;2.35;93.36
75401;BME280;63974;47.538;18.972;2024-02-16T06:11:22;101011.97;;;2.45;92.49
75401;BME280;63974;47.538;18.972;2024-02-16T06:14:25;101003.56;;;2.43;92.52
75401;BME280;63974;47.538;18.972;2024-02-16T06:17:27;101010.09;;;2.34;92.86
75401;BME280;63974;47.538;18.972;2024-02-16T06:20:32;101007.63;;;2.20;92.76
75401;BME280;63974;47.538;18.972;2024-02-16T06:23:34;101014.56;;;2.18;93.46
75401;BME280;63974;47.538;18.972;2024-02-16T06:26:37;101010.91;;;2.35;92.70
75401;BME280;63974;47.538;18.972;2024-02-16T06:29:40;101013.50;;;2.47;92.64
75401;BME280;63974;47.538;18.972;2024-02-16T06:32:44;101014.44;;;2.59;92.42
75401;BME280;63974;47.538;18.972;2024-02-16T06:35:46;101011.78;;;2.60;92.28
75401;BME280;63974;47.538;18.972;2024-02-16T06:38:51;101010.97;;;2.85;91.40
75401;BME280;63974;47.538;18.972;2024-02-16T06:41:55;101022.97;;;2.97;90.88
75401;BME280;63974;47.538;18.972;2024-02-16T06:44:58;101016.00;;;3.11;90.38
75401;BME280;63974;47.538;18.972;2024-02-16T06:48:01;101020.50;;;3.20;91.15
75401;BME280;63974;47.538;18.972;2024-02-16T06:51:05;101035.38;;;3.28;91.28
75401;BME280;63974;47.538;18.972;2024-02-16T06:54:12;101027.25;;;3.34;90.66
75401;BME280;63974;47.538;18.972;2024-02-16T06:57:15;101031.25;;;3.38;90.94
75401;BME280;63974;47.538;18.972;2024-02-16T07:00:19;101035.75;;;3.47;91.48
75401;BME280;63974;47.538;18.972;2024-02-16T07:03:22;101036.75;;;3.57;91.66
75401;BME280;63974;47.538;18.972;2024-02-16T07:06:26;101039.78;;;3.74;90.72
75401;BME280;63974;47.538;18.972;2024-02-16T07:09:29;101036.25;;;3.88;90.55
75401;BME280;63974;47.538;18.972;2024-02-16T07:12:34;101032.66;;;4.14;89.51
75401;BME280;63974;47.538;18.972;2024-02-16T07:15:38;101027.47;;;4.26;89.12
75401;BME280;63974;47.538;18.972;2024-02-16T07:18:41;101029.38;;;4.46;87.92
75401;BME280;63974;47.538;18.972;2024-02-16T07:21:45;101030.72;;;4.62;88.38
75401;BME280;63974;47.538;18.972;2024-02-16T07:24:48;101026.91;;;4.79;88.27
75401;BME280;63974;47.538;18.972;2024-02-16T07:27:50;101030.78;;;4.95;87.25
75401;BME280;63974;47.538;18.972;2024-02-16T07:30:55;101030.63;;;4.86;87.02
75401;BME280;63974;47.538;18.972;2024-02-16T07:33:57;101031.94;;;4.91;87.68
75401;BME280;63974;47.538;18.972;2024-02-16T07:37:00;101026.00;;;4.91;87.55
75401;BME280;63974;47.538;18.972;2024-02-16T07:40:03;101015.47;;;5.05;86.46
75401;BME280;63974;47.538;18.972;2024-02-16T07:43:09;101021.09;;;5.21;85.20
75401;BME280;63974;47.538;18.972;2024-02-16T07:46:14;101031.13;;;5.46;85.09
75401;BME280;63974;47.538;18.972;2024-02-16T07:49:19;101032.91;;;5.45;85.04
75401;BME280;63974;47.538;18.972;2024-02-16T07:52:22;101031.13;;;5.68;84.81
75401;BME280;63974;47.538;18.972;2024-02-16T07:55:25;101035.22;;;5.92;83.89
75401;BME280;63974;47.538;18.972;2024-02-16T07:58:27;101028.72;;;6.09;82.69
75401;BME280;63974;47.538;18.972;2024-02-16T08:01:30;101029.69;;;6.28;81.46
75401;BME280;63974;47.538;18.972;2024-02-16T08:04:34;101033.41;;;6.35;80.79
75401;BME280;63974;47.538;18.972;2024-02-16T08:07:37;101026.78;;;6.53;80.32
75401;BME280;63974;47.538;18.972;2024-02-16T08:10:41;101034.94;;;6.78;80.94
75401;BME280;63974;47.538;18.972;2024-02-16T08:13:43;101034.75;;;6.91;79.25
75401;BME280;63974;47.538;18.972;2024-02-16T08:16:47;101038.31;;;6.99;76.67
75401;BME280;63974;47.538;18.972;2024-02-16T08:19:54;101037.09;;;7.24;76.98
75401;BME280;63974;47.538;18.972;2024-02-16T08:22:57;101043.94;;;7.34;75.31
75401;BME280;63974;47.538;18.972;2024-02-16T08:26:01;101044.53;;;7.47;74.55
75401;BME280;63974;47.538;18.972;2024-02-16T08:29:04;101038.88;;;7.63;74.75
75401;BME280;63974;47.538;18.972;2024-02-16T08:32:06;101031.13;;;7.72;73.30
75401;BME280;63974;47.538;18.972;2024-02-16T08:35:11;101037.56;;;7.87;73.77
75401;BME280;63974;47.538;18.972;2024-02-16T08:38:16;101037.72;;;7.95;73.17
75401;BME280;63974;47.538;18.972;2024-02-16T08:41:20;101031.03;;;8.02;70.70
75401;BME280;63974;47.538;18.972;2024-02-16T08:44:25;101027.66;;;8.11;71.10
75401;BME280;63974;47.538;18.972;2024-02-16T08:47:27;101031.94;;;8.22;71.70
75401;BME280;63974;47.538;18.972;2024-02-16T08:50:30;101029.47;;;8.30;70.90
75401;BME280;63974;47.538;18.972;2024-02-16T08:53:33;101037.78;;;8.33;70.33
75401;BME280;63974;47.538;18.972;2024-02-16T08:56:36;101030.41;;;8.29;70.07
75401;BME280;63974;47.538;18.972;2024-02-16T08:59:41;101038.88;;;8.40;70.32
75401;BME280;63974;47.538;18.972;2024-02-16T09:02:44;101046.75;;;8.48;69.23
75401;BME280;63974;47.538;18.972;2024-02-16T09:05:48;101039.00;;;8.58;69.78
75401;BME280;63974;47.538;18.972;2024-02-16T09:08:52;101033.66;;;8.69;68.32
75401;BME280;63974;47.538;18.972;2024-02-16T09:11:54;101024.25;;;8.77;69.36
75401;BME280;63974;47.538;18.972;2024-02-16T09:14:57;101027.34;;;8.90;69.21
75401;BME280;63974;47.538;18.972;2024-02-16T09:18:00;101037.41;;;9.02;67.56
75401;BME280;63974;47.538;18.972;2024-02-16T09:21:03;101035.84;;;9.19;66.80
75401;BME280;63974;47.538;18.972;2024-02-16T09:24:06;101033.78;;;9.22;67.11
75401;BME280;63974;47.538;18.972;2024-02-16T09:27:13;101040.28;;;9.36;64.90
75401;BME280;63974;47.538;18.972;2024-02-16T09:30:16;101036.75;;;9.37;64.66
75401;BME280;63974;47.538;18.972;2024-02-16T09:33:19;101036.28;;;9.51;63.91
75401;BME280;63974;47.538;18.972;2024-02-16T09:36:24;101038.38;;;9.65;62.81
75401;BME280;63974;47.538;18.972;2024-02-16T09:39:27;101037.94;;;9.69;62.08
75401;BME280;63974;47.538;18.972;2024-02-16T09:42:34;101025.16;;;9.85;62.90
75401;BME280;63974;47.538;18.972;2024-02-16T09:45:40;101024.38;;;10.02;61.84
75401;BME280;63974;47.538;18.972;2024-02-16T09:48:45;101037.53;;;10.18;61.77
75401;BME280;63974;47.538;18.972;2024-02-16T09:51:52;101031.59;;;10.26;61.41
75401;BME280;63974;47.538;18.972;2024-02-16T09:54:59;101030.00;;;10.15;60.67
75401;BME280;63974;47.538;18.972;2024-02-16T09:58:02;101034.00;;;10.27;60.67
75401;BME280;63974;47.538;18.972;2024-02-16T10:01:07;101034.09;;;10.53;60.43
75401;BME280;63974;47.538;18.972;2024-02-16T10:04:10;101027.03;;;10.63;61.61
75401;BME280;63974;47.538;18.972;2024-02-16T10:07:13;101022.63;;;10.63;61.02
75401;BME280;63974;47.538;18.972;2024-02-16T10:10:24;101018.69;;;10.77;61.23
75401;BME280;63974;47.538;18.972;2024-02-16T10:13:27;101007.19;;;10.79;59.85
75401;BME280;63974;47.538;18.972;2024-02-16T10:16:30;101009.88;;;10.95;58.95
75401;BME280;63974;47.538;18.972;2024-02-16T10:19:35;101007.34;;;11.03;59.10
75401;BME280;63974;47.538;18.972;2024-02-16T10:22:45;101007.41;;;11.19;59.25
75401;BME280;63974;47.538;18.972;2024-02-16T10:25:50;101002.53;;;11.16;59.46
75401;BME280;63974;47.538;18.972;2024-02-16T10:28:55;100997.72;;;11.29;58.79
75401;BME280;63974;47.538;18.972;2024-02-16T10:31:58;100993.47;;;11.28;59.29
75401;BME280;63974;47.538;18.972;2024-02-16T10:35:02;100991.25;;;11.49;59.40
75401;BME280;63974;47.538;18.972;2024-02-16T10:38:07;100986.75;;;11.51;58.03
75401;BME280;63974;47.538;18.972;2024-02-16T10:41:13;100991.38;;;11.65;56.86
75401;BME280;63974;47.538;18.972;2024-02-16T10:44:17;100982.78;;;11.72;56.98
75401;BME280;63974;47.538;18.972;2024-02-16T10:47:21;100992.19;;;11.73;56.93
75401;BME280;63974;47.538;18.972;2024-02-16T10:50:24;100981.28;;;11.70;56.16
75401;BME280;63974;47.538;18.972;2024-02-16T10:53:28;100985.66;;;11.61;56.02
75401;BME280;63974;47.538;18.972;2024-02-16T10:56:36;100977.41;;;11.74;56.80
75401;BME280;63974;47.538;18.972;2024-02-16T10:59:43;100974.16;;;11.80;56.67
75401;BME280;63974;47.538;18.972;2024-02-16T11:06:00;100969.47;;;11.83;55.60
75401;BME280;63974;47.538;18.972;2024-02-16T11:09:03;100966.53;;;12.02;54.42
75401;BME280;63974;47.538;18.972;2024-02-16T11:12:13;100965.56;;;12.11;54.19
75401;BME280;63974;47.538;18.972;2024-02-16T11:15:27;100959.06;;;12.15;53.91
75401;BME280;63974;47.538;18.972;2024-02-16T11:18:32;100950.63;;;12.21;53.31
75401;BME280;63974;47.538;18.972;2024-02-16T11:21:35;100954.69;;;12.40;53.45
75401;BME280;63974;47.538;18.972;2024-02-16T11:24:50;100951.25;;;12.39;52.44
75401;BME280;63974;47.538;18.972;2024-02-16T11:27:59;100950.22;;;12.64;52.50
75401;BME280;63974;47.538;18.972;2024-02-16T11:31:02;100945.88;;;12.49;51.94
75401;BME280;63974;47.538;18.972;2024-02-16T11:34:06;100948.78;;;12.46;53.19
75401;BME280;63974;47.538;18.972;2024-02-16T11:37:09;100937.72;;;12.44;52.89
75401;BME280;63974;47.538;18.972;2024-02-16T11:40:12;100932.38;;;12.53;52.32
75401;BME280;63974;47.538;18.972;2024-02-16T11:43:22;100929.09;;;12.51;52.23
75401;BME280;63974;47.538;18.972;2024-02-16T11:46:25;100927.97;;;12.46;51.85
75401;BME280;63974;47.538;18.972;2024-02-16T11:49:29;100929.91;;;12.44;52.52
75401;BME280;63974;47.538;18.972;2024-02-16T11:52:33;100929.09;;;12.59;52.74
75401;BME280;63974;47.538;18.972;2024-02-16T11:55:39;100928.88;;;12.77;51.39
75401;BME280;63974;47.538;18.972;2024-02-16T11:58:42;100920.72;;;12.88;52.25
75401;BME280;63974;47.538;18.972;2024-02-16T12:01:49;100920.44;;;12.75;51.21
75401;BME280;63974;47.538;18.972;2024-02-16T12:04:59;100922.75;;;12.62;50.67
75401;BME280;63974;47.538;18.972;2024-02-16T12:08:06;100916.41;;;12.56;51.79
75401;BME280;63974;47.538;18.972;2024-02-16T12:11:09;100903.31;;;12.72;51.17
75401;BME280;63974;47.538;18.972;2024-02-16T12:14:12;100913.91;;;12.71;49.60
75401;BME280;63974;47.538;18.972;2024-02-16T12:17:18;100904.09;;;12.81;50.08
75401;BME280;63974;47.538;18.972;2024-02-16T12:20:21;100902.47;;;12.80;50.07
75401;BME280;63974;47.538;18.972;2024-02-16T12:23:23;100889.78;;;12.77;50.90
75401;BME280;63974;47.538;18.972;2024-02-16T12:26:26;100900.69;;;12.80;50.08
75401;BME280;63974;47.538;18.972;2024-02-16T12:29:29;100890.28;;;12.72;49.69
75401;BME280;63974;47.538;18.972;2024-02-16T12:32:31;100890.63;;;12.77;49.43
75401;BME280;63974;47.538;18.972;2024-02-16T12:35:34;100884.28;;;12.72;49.97
75401;BME280;63974;47.538;18.972;2024-02-16T12:38:37;100891.91;;;12.73;49.22
75401;BME280;63974;47.538;18.972;2024-02-16T12:41:41;100887.34;;;12.75;50.12
75401;BME280;63974;47.538;18.972;2024-02-16T12:44:45;100870.44;;;12.63;50.75
75401;BME280;63974;47.538;18.972;2024-02-16T12:47:48;100879.56;;;12.67;50.23
75401;BME280;63974;47.538;18.972;2024-02-16T12:50:52;100872.56;;;12.68;50.15
75401;BME280;63974;47.538;18.972;2024-02-16T12:53:55;100874.38;;;12.67;49.90
75401;BME280;63974;47.538;18.972;2024-02-16T12:56:58;100869.31;;;12.66;50.43
75401;BME280;63974;47.538;18.972;2024-02-16T13:00:01;100873.88;;;12.64;48.75
75401;BME280;63974;47.538;18.972;2024-02-16T13:03:09;100877.63;;;12.61;49.50
75401;BME280;63974;47.538;18.972;2024-02-16T13:06:12;100866.69;;;12.66;49.61
75401;BME280;63974;47.538;18.972;2024-02-16T13:09:16;100872.41;;;12.61;49.45
75401;BME280;63974;47.538;18.972;2024-02-16T13:12:19;100871.75;;;12.67;49.15
75401;BME280;63974;47.538;18.972;2024-02-16T13:15:25;100872.06;;;12.64;49.58
75401;BME280;63974;47.538;18.972;2024-02-16T13:18:30;100871.47;;;12.54;49.93
75401;BME280;63974;47.538;18.972;2024-02-16T13:21:33;100869.69;;;12.47;49.69
75401;BME280;63974;47.538;18.972;2024-02-16T13:24:37;100869.38;;;12.50;50.07
75401;BME280;63974;47.538;18.972;2024-02-16T13:27:40;100862.50;;;12.57;49.45
75401;BME280;63974;47.538;18.972;2024-02-16T13:30:43;100853.75;;;12.50;49.21
75401;BME280;63974;47.538;18.972;2024-02-16T13:33:47;100862.00;;;12.61;48.90
75401;BME280;63974;47.538;18.972;2024-02-16T13:36:50;100853.88;;;12.48;50.28
75401;BME280;63974;47.538;18.972;2024-02-16T13:39:53;100862.38;;;12.42;51.27
75401;BME280;63974;47.538;18.972;2024-02-16T13:42:57;100847.75;;;12.41;49.13
75401;BME280;63974;47.538;18.972;2024-02-16T13:46:04;100849.69;;;12.39;49.42
75401;BME280;63974;47.538;18.972;2024-02-16T13:49:07;100851.97;;;12.34;48.80
75401;BME280;63974;47.538;18.972;2024-02-16T13:52:10;100849.38;;;12.34;49.16
75401;BME280;63974;47.538;18.972;2024-02-16T13:55:13;100839.13;;;12.33;48.57
75401;BME280;63974;47.538;18.972;2024-02-16T13:58:17;100837.81;;;12.37;48.78
75401;BME280;63974;47.538;18.972;2024-02-16T14:01:20;100841.38;;;12.44;49.23
75401;BME280;63974;47.538;18.972;2024-02-16T14:04:23;100833.44;;;12.29;46.59
75401;BME280;63974;47.538;18.972;2024-02-16T14:07:26;100837.69;;;12.22;47.04
75401;BME280;63974;47.538;18.972;2024-02-16T14:10:29;100838.31;;;12.24;45.64
75401;BME280;63974;47.538;18.972;2024-02-16T14:13:32;100826.13;;;12.25;45.39
75401;BME280;63974;47.538;18.972;2024-02-16T14:16:34;100829.22;;;12.20;45.27
75401;BME280;63974;47.538;18.972;2024-02-16T14:19:39;100831.00;;;12.20;45.51
75401;BME280;63974;47.538;18.972;2024-02-16T14:22:44;100823.84;;;12.22;45.55
75401;BME280;63974;47.538;18.972;2024-02-16T14:25:46;100818.34;;;12.09;46.95
75401;BME280;63974;47.538;18.972;2024-02-16T14:28:50;100832.97;;;12.18;45.44
75401;BME280;63974;47.538;18.972;2024-02-16T14:31:52;100836.56;;;12.17;45.44
75401;BME280;63974;47.538;18.972;2024-02-16T14:34:55;100841.28;;;12.13;45.73
75401;BME280;63974;47.538;18.972;2024-02-16T14:37:58;100843.22;;;12.03;45.93
75401;BME280;63974;47.538;18.972;2024-02-16T14:41:01;100837.72;;;11.98;46.01
75401;BME280;63974;47.538;18.972;2024-02-16T14:44:08;100833.97;;;12.01;46.26
75401;BME280;63974;47.538;18.972;2024-02-16T14:47:12;100838.69;;;11.97;46.40
75401;BME280;63974;47.538;18.972;2024-02-16T14:50:15;100835.13;;;11.90;46.12
75401;BME280;63974;47.538;18.972;2024-02-16T14:53:19;100836.44;;;11.86;46.25
75401;BME280;63974;47.538;18.972;2024-02-16T14:56:23;100850.25;;;11.79;44.75
75401;BME280;63974;47.538;18.972;2024-02-16T14:59:26;100846.03;;;11.78;45.03
75401;BME280;63974;47.538;18.972;2024-02-16T15:02:30;100840.66;;;11.71;44.26
75401;BME280;63974;47.538;18.972;2024-02-16T15:05:33;100845.53;;;11.74;45.22
75401;BME280;63974;47.538;18.972;2024-02-16T15:08:35;100836.91;;;11.66;45.55
75401;BME280;63974;47.538;18.972;2024-02-16T15:11:38;100845.53;;;11.58;45.12
75401;BME280;63974;47.538;18.972;2024-02-16T15:14:41;100844.03;;;11.56;45.57
75401;BME280;63974;47.538;18.972;2024-02-16T15:17:44;100841.59;;;11.46;45.15
75401;BME280;63974;47.538;18.972;2024-02-16T15:20:46;100836.22;;;11.40;44.98
75401;BME280;63974;47.538;18.972;2024-02-16T15:23:56;100836.84;;;11.34;45.86
75401;BME280;63974;47.538;18.972;2024-02-16T15:26:59;100833.94;;;11.29;46.08
75401;BME280;63974;47.538;18.972;2024-02-16T15:30:03;100836.50;;;11.21;46.87
75401;BME280;63974;47.538;18.972;2024-02-16T15:33:07;100832.44;;;11.18;47.07
75401;BME280;63974;47.538;18.972;2024-02-16T15:36:11;100840.88;;;11.12;47.67
75401;BME280;63974;47.538;18.972;2024-02-16T15:39:13;100834.53;;;11.07;47.60
75401;BME280;63974;47.538;18.972;2024-02-16T15:42:18;100841.63;;;10.97;47.81
75401;BME280;63974;47.538;18.972;2024-02-16T15:45:21;100837.56;;;10.95;47.98
75401;BME280;63974;47.538;18.972;2024-02-16T15:48:24;100842.25;;;10.83;48.38
75401;BME280;63974;47.538;18.972;2024-02-16T15:51:28;100847.09;;;10.78;48.73
75401;BME280;63974;47.538;18.972;2024-02-16T15:54:31;100846.72;;;10.65;49.50
75401;BME280;63974;47.538;18.972;2024-02-16T15:57:34;100852.47;;;10.51;49.80